createdAt,value
2017-08-14T00:00:39.317Z,0
2017-08-14T00:01:19.840Z,0
2017-08-14T00:02:00.378Z,0
2017-08-14T00:02:40.907Z,0
2017-08-14T00:03:21.442Z,0
2017-08-14T00:04:02.002Z,0
2017-08-14T00:04:42.495Z,0
2017-08-14T00:05:23.027Z,0
2017-08-14T00:06:03.551Z,0
2017-08-14T00:06:44.075Z,0
2017-08-14T00:07:24.605Z,0
2017-08-14T00:08:05.143Z,0
2017-08-14T00:08:45.640Z,0
2017-08-14T00:09:26.144Z,0
2017-08-14T00:10:06.616Z,0
2017-08-14T00:10:47.129Z,0
2017-08-14T00:11:27.662Z,0
2017-08-14T00:12:08.199Z,0
2017-08-14T00:12:48.692Z,0
2017-08-14T00:13:29.197Z,0
2017-08-14T00:14:09.737Z,0
2017-08-14T00:14:50.295Z,0
2017-08-14T00:15:30.797Z,0
2017-08-14T00:16:11.306Z,0
2017-08-14T00:16:51.788Z,0
2017-08-14T00:17:32.285Z,0
2017-08-14T00:18:12.753Z,0
2017-08-14T00:18:53.249Z,0
2017-08-14T00:19:33.742Z,0
2017-08-14T00:20:14.247Z,0
2017-08-14T00:20:54.756Z,0
2017-08-14T00:21:35.244Z,0
2017-08-14T00:22:15.712Z,0
2017-08-14T00:22:56.194Z,0
2017-08-14T00:23:36.722Z,0
2017-08-14T00:24:17.270Z,0
2017-08-14T00:24:57.789Z,0
2017-08-14T00:25:38.327Z,0
2017-08-14T00:26:18.849Z,0
2017-08-14T00:26:59.392Z,0
2017-08-14T00:27:39.923Z,0
2017-08-14T00:28:20.445Z,0
2017-08-14T00:29:00.957Z,0
2017-08-14T00:29:41.486Z,0
2017-08-14T00:30:21.950Z,0
2017-08-14T00:31:02.456Z,0
2017-08-14T00:31:42.945Z,0
2017-08-14T00:32:23.462Z,0
2017-08-14T00:33:03.942Z,0
2017-08-14T00:33:44.439Z,0
2017-08-14T00:34:24.926Z,0
2017-08-14T00:35:05.419Z,0
2017-08-14T00:35:45.906Z,0
2017-08-14T00:36:26.398Z,0
2017-08-14T00:37:06.918Z,0
2017-08-14T00:37:47.459Z,0
2017-08-14T00:38:27.975Z,0
2017-08-14T00:39:08.516Z,0
2017-08-14T00:39:49.025Z,0
2017-08-14T00:40:29.510Z,0
2017-08-14T00:41:09.993Z,0
2017-08-14T00:41:50.512Z,0
2017-08-14T00:42:31.019Z,0
2017-08-14T00:43:11.496Z,0
2017-08-14T00:43:51.985Z,0
2017-08-14T00:44:32.500Z,0
2017-08-14T00:45:13.020Z,0
2017-08-14T00:45:53.554Z,0
2017-08-14T00:46:34.073Z,0
2017-08-14T00:47:14.597Z,0
2017-08-14T00:47:55.142Z,0
2017-08-14T00:48:35.640Z,0
2017-08-14T00:49:16.166Z,0
2017-08-14T00:49:56.652Z,0
2017-08-14T00:50:37.144Z,0
2017-08-14T00:51:17.648Z,0
2017-08-14T00:51:58.143Z,0
2017-08-14T00:52:38.646Z,0
2017-08-14T00:53:19.177Z,0
2017-08-14T00:53:59.708Z,0
2017-08-14T00:54:40.240Z,0
2017-08-14T00:55:20.828Z,0
2017-08-14T00:56:01.364Z,0
2017-08-14T00:56:41.853Z,0
2017-08-14T00:57:22.346Z,0
2017-08-14T00:58:02.821Z,0
2017-08-14T00:58:43.307Z,0
2017-08-14T00:59:23.802Z,0
2017-08-14T01:00:04.279Z,0
2017-08-14T01:00:44.778Z,0
2017-08-14T01:01:25.242Z,0
2017-08-14T01:02:05.794Z,0
2017-08-14T01:02:46.320Z,0
2017-08-14T01:03:26.841Z,0
2017-08-14T01:04:07.341Z,0
2017-08-14T01:04:47.837Z,0
2017-08-14T01:05:28.375Z,0
2017-08-14T01:06:08.891Z,0
2017-08-14T01:06:49.385Z,0
2017-08-14T01:07:29.875Z,0
2017-08-14T01:08:10.396Z,0
2017-08-14T01:08:50.898Z,0
2017-08-14T01:09:31.409Z,0
2017-08-14T01:10:11.930Z,0
2017-08-14T01:10:52.456Z,0
2017-08-14T01:11:32.992Z,0
2017-08-14T01:12:13.517Z,0
2017-08-14T01:12:54.034Z,0
2017-08-14T01:13:34.572Z,0
2017-08-14T01:14:15.094Z,0
2017-08-14T01:14:55.623Z,0
2017-08-14T01:15:36.169Z,0
2017-08-14T01:16:16.660Z,0
2017-08-14T01:16:57.190Z,0
2017-08-14T01:17:37.737Z,0
2017-08-14T01:18:18.293Z,0
2017-08-14T01:18:58.799Z,0
2017-08-14T01:19:39.327Z,0
2017-08-14T01:20:19.946Z,0
2017-08-14T01:21:00.570Z,0
2017-08-14T01:21:42.604Z,0
2017-08-14T01:22:23.223Z,0
2017-08-14T01:23:03.700Z,0
2017-08-14T01:23:44.197Z,0
2017-08-14T01:24:24.685Z,0
2017-08-14T01:25:05.227Z,0
2017-08-14T01:25:45.710Z,0
2017-08-14T01:26:26.225Z,0
2017-08-14T01:27:06.694Z,0
2017-08-14T01:27:47.204Z,0
2017-08-14T01:28:27.711Z,0
2017-08-14T01:29:08.237Z,0
2017-08-14T01:29:48.769Z,0
2017-08-14T01:30:29.286Z,0
2017-08-14T01:31:09.777Z,0
2017-08-14T01:31:50.254Z,0
2017-08-14T01:32:30.719Z,0
2017-08-14T01:33:11.212Z,0
2017-08-14T01:33:51.686Z,0
2017-08-14T01:34:32.202Z,0
2017-08-14T01:35:12.677Z,0
2017-08-14T01:35:53.161Z,0
2017-08-14T01:36:33.692Z,0
2017-08-14T01:37:14.140Z,0
2017-08-14T01:37:54.653Z,0
2017-08-14T01:38:35.169Z,0
2017-08-14T01:39:15.703Z,0
2017-08-14T01:39:56.241Z,0
2017-08-14T01:40:36.778Z,0
2017-08-14T01:41:17.316Z,0
2017-08-14T01:41:57.827Z,0
2017-08-14T01:42:38.365Z,0
2017-08-14T01:43:18.944Z,0
2017-08-14T01:43:59.490Z,0
2017-08-14T01:44:39.990Z,0
2017-08-14T01:45:20.471Z,0
2017-08-14T01:46:00.965Z,0
2017-08-14T01:46:41.436Z,0
2017-08-14T01:47:21.918Z,0
2017-08-14T01:48:02.436Z,0
2017-08-14T01:48:42.921Z,0
2017-08-14T01:49:23.456Z,0
2017-08-14T01:50:03.990Z,0
2017-08-14T01:50:44.489Z,0
2017-08-14T01:51:24.978Z,0
2017-08-14T01:52:05.495Z,0
2017-08-14T01:52:46.014Z,0
2017-08-14T01:53:26.530Z,0
2017-08-14T01:54:07.007Z,0
2017-08-14T01:54:47.508Z,0
2017-08-14T01:55:28.062Z,0
2017-08-14T01:56:08.610Z,0
2017-08-14T01:56:49.119Z,0
2017-08-14T01:57:29.631Z,0
2017-08-14T01:58:10.146Z,0
2017-08-14T01:58:50.613Z,0
2017-08-14T01:59:31.095Z,0
2017-08-14T02:00:11.596Z,0
2017-08-14T02:00:52.093Z,0
2017-08-14T02:01:32.594Z,0
2017-08-14T02:02:13.103Z,0
2017-08-14T02:02:53.637Z,0
2017-08-14T02:03:34.167Z,0
2017-08-14T02:04:14.695Z,0
2017-08-14T02:04:55.224Z,0
2017-08-14T02:05:35.767Z,0
2017-08-14T02:06:16.290Z,0
2017-08-14T02:06:56.827Z,0
2017-08-14T02:07:37.368Z,0
2017-08-14T02:08:17.887Z,0
2017-08-14T02:08:58.423Z,0
2017-08-14T02:09:38.938Z,0
2017-08-14T02:10:19.479Z,0
2017-08-14T02:10:59.979Z,0
2017-08-14T02:11:40.460Z,0
2017-08-14T02:12:20.939Z,0
2017-08-14T02:13:01.425Z,0
2017-08-14T02:13:41.918Z,0
2017-08-14T02:14:22.378Z,0
2017-08-14T02:15:02.871Z,0
2017-08-14T02:15:43.378Z,0
2017-08-14T02:16:23.847Z,0
2017-08-14T02:17:04.383Z,0
2017-08-14T02:17:44.874Z,0
2017-08-14T02:18:25.380Z,0
2017-08-14T02:19:05.834Z,0
2017-08-14T02:19:46.311Z,0
2017-08-14T02:20:26.815Z,0
2017-08-14T02:21:07.273Z,0
2017-08-14T02:21:47.779Z,0
2017-08-14T02:22:28.264Z,0
2017-08-14T02:23:08.801Z,0
2017-08-14T02:23:49.354Z,0
2017-08-14T02:24:29.877Z,0
2017-08-14T02:25:10.402Z,0
2017-08-14T02:25:50.939Z,0
2017-08-14T02:26:31.454Z,0
2017-08-14T02:27:11.987Z,0
2017-08-14T02:27:52.512Z,0
2017-08-14T02:28:33.046Z,0
2017-08-14T02:29:13.587Z,0
2017-08-14T02:29:54.112Z,0
2017-08-14T02:30:34.630Z,0
2017-08-14T02:31:15.152Z,0
2017-08-14T02:31:55.688Z,0
2017-08-14T02:32:36.237Z,0
2017-08-14T02:33:16.774Z,0
2017-08-14T02:33:57.311Z,0
2017-08-14T02:34:37.830Z,0
2017-08-14T02:35:18.342Z,0
2017-08-14T02:35:58.851Z,0
2017-08-14T02:36:39.330Z,0
2017-08-14T02:37:19.836Z,0
2017-08-14T02:38:00.330Z,0
2017-08-14T02:38:40.822Z,0
2017-08-14T02:39:21.393Z,0
2017-08-14T02:40:01.862Z,0
2017-08-14T02:40:42.361Z,0
2017-08-14T02:41:22.812Z,0
2017-08-14T02:42:03.296Z,0
2017-08-14T02:42:43.787Z,0
2017-08-14T02:43:24.279Z,0
2017-08-14T02:44:04.826Z,0
2017-08-14T02:44:45.356Z,0
2017-08-14T02:45:25.886Z,0
2017-08-14T02:46:06.406Z,0
2017-08-14T02:46:46.938Z,0
2017-08-14T02:47:27.498Z,0
2017-08-14T02:48:07.993Z,0
2017-08-14T02:48:48.477Z,0
2017-08-14T02:49:28.987Z,0
2017-08-14T02:50:09.478Z,0
2017-08-14T02:50:49.958Z,0
2017-08-14T02:51:30.462Z,0
2017-08-14T02:52:10.921Z,0
2017-08-14T02:52:51.420Z,0
2017-08-14T02:53:31.915Z,0
2017-08-14T02:54:12.414Z,0
2017-08-14T02:54:52.883Z,0
2017-08-14T02:55:33.417Z,0
2017-08-14T02:56:13.883Z,0
2017-08-14T02:56:54.412Z,0
2017-08-14T02:57:34.874Z,0
2017-08-14T02:58:15.350Z,0
2017-08-14T02:58:55.875Z,0
2017-08-14T02:59:36.368Z,0
2017-08-14T03:00:16.879Z,0
2017-08-14T03:00:57.356Z,0
2017-08-14T03:01:39.745Z,0
2017-08-14T03:02:20.216Z,0
2017-08-14T03:03:00.693Z,0
2017-08-14T03:03:41.203Z,0
2017-08-14T03:04:21.728Z,0
2017-08-14T03:05:02.253Z,0
2017-08-14T03:05:42.789Z,0
2017-08-14T03:06:23.319Z,0
2017-08-14T03:07:03.824Z,0
2017-08-14T03:07:44.332Z,0
2017-08-14T03:08:24.806Z,0
2017-08-14T03:09:05.318Z,0
2017-08-14T03:09:45.862Z,0
2017-08-14T03:10:26.345Z,0
2017-08-14T03:11:06.874Z,0
2017-08-14T03:11:47.395Z,0
2017-08-14T03:12:27.917Z,0
2017-08-14T03:13:08.500Z,0
2017-08-14T03:13:49.067Z,0
2017-08-14T03:14:29.613Z,0
2017-08-14T03:15:10.145Z,0
2017-08-14T03:15:50.669Z,0
2017-08-14T03:16:31.209Z,0
2017-08-14T03:17:11.748Z,0
2017-08-14T03:17:52.278Z,0
2017-08-14T03:18:32.815Z,0
2017-08-14T03:19:13.350Z,0
2017-08-14T03:19:53.881Z,0
2017-08-14T03:20:34.416Z,0
2017-08-14T03:21:14.959Z,0
2017-08-14T03:21:55.505Z,0
2017-08-14T03:22:36.029Z,0
2017-08-14T03:23:16.564Z,0
2017-08-14T03:23:57.099Z,0
2017-08-14T03:24:37.638Z,0
2017-08-14T03:25:18.181Z,0
2017-08-14T03:25:58.994Z,0
2017-08-14T03:26:39.533Z,0
2017-08-14T03:27:20.068Z,0
2017-08-14T03:28:00.601Z,0
2017-08-14T03:28:41.139Z,0
2017-08-14T03:29:21.673Z,0
2017-08-14T03:30:02.219Z,0
2017-08-14T03:30:42.754Z,0
2017-08-14T03:31:23.294Z,0
2017-08-14T03:32:03.839Z,0
2017-08-14T03:32:44.372Z,0
2017-08-14T03:33:24.908Z,0
2017-08-14T03:34:05.435Z,0
2017-08-14T03:34:45.966Z,0
2017-08-14T03:35:26.495Z,0
2017-08-14T03:36:07.033Z,0
2017-08-14T03:36:47.563Z,0
2017-08-14T03:37:28.095Z,0
2017-08-14T03:38:08.638Z,0
2017-08-14T03:38:49.174Z,0
2017-08-14T03:39:29.702Z,0
2017-08-14T03:40:10.221Z,0
2017-08-14T03:40:50.749Z,0
2017-08-14T03:41:31.318Z,0
2017-08-14T03:42:11.871Z,0
2017-08-14T03:42:52.402Z,0
2017-08-14T03:43:32.952Z,0
2017-08-14T03:44:13.483Z,0
2017-08-14T03:44:54.013Z,0
2017-08-14T03:45:34.545Z,0
2017-08-14T03:46:15.292Z,0
2017-08-14T03:46:55.820Z,0
2017-08-14T03:47:36.338Z,0
2017-08-14T03:48:16.884Z,0
2017-08-14T03:48:57.403Z,0
2017-08-14T03:49:37.913Z,0
2017-08-14T03:50:18.448Z,0
2017-08-14T03:50:58.998Z,0
2017-08-14T03:51:39.495Z,0
2017-08-14T03:52:20.044Z,0
2017-08-14T03:53:00.554Z,0
2017-08-14T03:53:41.159Z,0
2017-08-14T03:54:21.663Z,0
2017-08-14T03:55:02.192Z,0
2017-08-14T03:55:42.698Z,0
2017-08-14T03:56:23.189Z,0
2017-08-14T03:57:03.718Z,0
2017-08-14T03:57:44.257Z,0
2017-08-14T03:58:24.764Z,0
2017-08-14T03:59:05.293Z,0
2017-08-14T03:59:45.818Z,0
2017-08-14T04:00:26.343Z,0
2017-08-14T04:01:06.839Z,0
2017-08-14T04:01:47.364Z,0
2017-08-14T04:02:27.895Z,0
2017-08-14T04:03:08.476Z,0
2017-08-14T04:03:48.986Z,0
2017-08-14T04:04:29.500Z,0
2017-08-14T04:05:10.020Z,0
2017-08-14T04:05:50.540Z,0
2017-08-14T04:06:31.048Z,0
2017-08-14T04:07:11.566Z,0
2017-08-14T04:07:52.096Z,0
2017-08-14T04:08:32.617Z,0
2017-08-14T04:09:13.124Z,0
2017-08-14T04:09:53.627Z,0
2017-08-14T04:10:34.142Z,0
2017-08-14T04:11:14.665Z,0
2017-08-14T04:11:55.190Z,0
2017-08-14T04:12:35.717Z,0
2017-08-14T04:13:16.253Z,0
2017-08-14T04:13:56.775Z,0
2017-08-14T04:14:37.334Z,0
2017-08-14T04:15:17.874Z,0
2017-08-14T04:15:58.400Z,0
2017-08-14T04:16:38.931Z,0
2017-08-14T04:17:19.487Z,0
2017-08-14T04:18:00.023Z,5
2017-08-14T04:18:40.519Z,5
2017-08-14T04:19:21.023Z,5
2017-08-14T04:20:01.528Z,5
2017-08-14T04:20:42.037Z,5
2017-08-14T04:21:22.523Z,5
2017-08-14T04:22:03.048Z,5
2017-08-14T04:22:43.589Z,5
2017-08-14T04:23:24.070Z,5
2017-08-14T04:24:04.606Z,5
2017-08-14T04:24:45.127Z,5
2017-08-14T04:25:25.661Z,5
2017-08-14T04:26:06.177Z,5
2017-08-14T04:26:46.708Z,5
2017-08-14T04:27:27.239Z,10
2017-08-14T04:28:07.799Z,10
2017-08-14T04:28:48.309Z,10
2017-08-14T04:29:28.841Z,10
2017-08-14T04:30:09.382Z,10
2017-08-14T04:30:49.917Z,10
2017-08-14T04:31:30.450Z,10
2017-08-14T04:32:11.013Z,10
2017-08-14T04:32:51.519Z,10
2017-08-14T04:33:32.002Z,10
2017-08-14T04:34:12.491Z,10
2017-08-14T04:34:52.996Z,15
2017-08-14T04:35:33.556Z,15
2017-08-14T04:36:14.058Z,15
2017-08-14T04:36:54.566Z,15
2017-08-14T04:37:35.087Z,15
2017-08-14T04:38:15.578Z,15
2017-08-14T04:38:56.098Z,15
2017-08-14T04:39:36.582Z,15
2017-08-14T04:40:17.116Z,15
2017-08-14T04:40:57.648Z,15
2017-08-14T04:41:38.179Z,15
2017-08-14T04:42:18.728Z,20
2017-08-14T04:42:59.278Z,20
2017-08-14T04:43:39.809Z,20
2017-08-14T04:44:20.335Z,20
2017-08-14T04:45:00.858Z,20
2017-08-14T04:45:41.380Z,20
2017-08-14T04:46:21.847Z,20
2017-08-14T04:47:02.332Z,20
2017-08-14T04:47:42.871Z,20
2017-08-14T04:48:23.394Z,20
2017-08-14T04:49:03.876Z,25
2017-08-14T04:49:44.398Z,25
2017-08-14T04:50:24.886Z,25
2017-08-14T04:51:05.406Z,25
2017-08-14T04:51:45.940Z,25
2017-08-14T04:52:26.443Z,25
2017-08-14T04:53:06.937Z,25
2017-08-14T04:53:47.443Z,25
2017-08-14T04:54:27.956Z,25
2017-08-14T04:55:08.474Z,25
2017-08-14T04:55:48.977Z,30
2017-08-14T04:56:29.475Z,30
2017-08-14T04:57:09.957Z,30
2017-08-14T04:57:50.478Z,30
2017-08-14T04:58:31.023Z,30
2017-08-14T04:59:11.512Z,30
2017-08-14T04:59:52.023Z,30
2017-08-14T05:00:32.510Z,30
2017-08-14T05:01:13.001Z,30
2017-08-14T05:01:53.535Z,30
2017-08-14T05:02:34.037Z,35
2017-08-14T05:03:14.545Z,35
2017-08-14T05:03:55.126Z,35
2017-08-14T05:04:35.638Z,35
2017-08-14T05:05:16.159Z,35
2017-08-14T05:05:56.678Z,35
2017-08-14T05:06:37.184Z,35
2017-08-14T05:07:17.710Z,35
2017-08-14T05:07:58.225Z,35
2017-08-14T05:08:38.776Z,35
2017-08-14T05:09:19.274Z,40
2017-08-14T05:09:59.774Z,40
2017-08-14T05:10:40.266Z,40
2017-08-14T05:11:21.038Z,40
2017-08-14T05:12:01.540Z,40
2017-08-14T05:12:42.068Z,40
2017-08-14T05:13:22.682Z,40
2017-08-14T05:14:03.143Z,40
2017-08-14T05:14:43.675Z,40
2017-08-14T05:15:24.319Z,40
2017-08-14T05:16:04.781Z,45
2017-08-14T05:16:45.506Z,45
2017-08-14T05:17:26.001Z,45
2017-08-14T05:18:06.542Z,45
2017-08-14T05:18:47.062Z,45
2017-08-14T05:19:27.584Z,45
2017-08-14T05:20:08.177Z,45
2017-08-14T05:20:48.764Z,45
2017-08-14T05:21:29.454Z,45
2017-08-14T05:22:10.031Z,45
2017-08-14T05:22:51.372Z,45
2017-08-14T05:23:31.860Z,50
2017-08-14T05:24:12.360Z,50
2017-08-14T05:24:52.949Z,50
2017-08-14T05:25:33.430Z,50
2017-08-14T05:26:13.951Z,50
2017-08-14T05:26:54.478Z,50
2017-08-14T05:27:35.030Z,50
2017-08-14T05:28:15.555Z,50
2017-08-14T05:28:56.107Z,50
2017-08-14T05:29:36.620Z,50
2017-08-14T05:30:17.079Z,55
2017-08-14T05:30:57.578Z,55
2017-08-14T05:31:38.060Z,55
2017-08-14T05:32:18.579Z,55
2017-08-14T05:32:59.088Z,55
2017-08-14T05:33:39.565Z,55
2017-08-14T05:34:20.150Z,55
2017-08-14T05:35:00.608Z,55
2017-08-14T05:35:41.128Z,55
2017-08-14T05:36:21.613Z,55
2017-08-14T05:37:02.146Z,60
2017-08-14T05:37:42.675Z,60
2017-08-14T05:38:23.208Z,60
2017-08-14T05:39:03.698Z,60
2017-08-14T05:39:44.213Z,60
2017-08-14T05:40:24.751Z,60
2017-08-14T05:41:05.286Z,60
2017-08-14T05:41:45.832Z,60
2017-08-14T05:42:26.327Z,60
2017-08-14T05:43:06.840Z,65
2017-08-14T05:43:47.337Z,65
2017-08-14T05:44:27.850Z,65
2017-08-14T05:45:08.385Z,65
2017-08-14T05:45:48.874Z,65
2017-08-14T05:46:29.401Z,65
2017-08-14T05:47:09.931Z,65
2017-08-14T05:47:50.440Z,65
2017-08-14T05:48:30.963Z,65
2017-08-14T05:49:11.514Z,65
2017-08-14T05:49:52.020Z,70
2017-08-14T05:50:32.495Z,70
2017-08-14T05:51:13.033Z,70
2017-08-14T05:51:53.586Z,70
2017-08-14T05:52:34.036Z,70
2017-08-14T05:53:14.618Z,70
2017-08-14T05:53:55.138Z,70
2017-08-14T05:54:35.632Z,70
2017-08-14T05:55:16.114Z,70
2017-08-14T05:55:56.648Z,70
2017-08-14T05:56:37.134Z,70
2017-08-14T05:57:17.683Z,75
2017-08-14T05:57:58.229Z,75
2017-08-14T05:58:38.758Z,75
2017-08-14T05:59:19.217Z,75
2017-08-14T05:59:59.857Z,75
2017-08-14T06:00:40.446Z,75
2017-08-14T06:01:21.052Z,75
2017-08-14T06:02:01.600Z,75
2017-08-14T06:02:42.123Z,75
2017-08-14T06:03:22.549Z,75
2017-08-14T06:04:03.087Z,75
2017-08-14T06:04:43.634Z,75
2017-08-14T06:05:24.166Z,80
2017-08-14T06:06:04.714Z,80
2017-08-14T06:06:45.250Z,80
2017-08-14T06:07:25.795Z,80
2017-08-14T06:08:06.313Z,80
2017-08-14T06:08:46.891Z,80
2017-08-14T06:09:27.417Z,80
2017-08-14T06:10:07.924Z,80
2017-08-14T06:10:48.456Z,80
2017-08-14T06:11:29.011Z,80
2017-08-14T06:12:09.557Z,85
2017-08-14T06:12:50.097Z,85
2017-08-14T06:13:30.593Z,85
2017-08-14T06:14:11.104Z,85
2017-08-14T06:14:51.661Z,85
2017-08-14T06:15:32.223Z,85
2017-08-14T06:16:12.738Z,85
2017-08-14T06:16:53.281Z,85
2017-08-14T06:17:33.858Z,85
2017-08-14T06:18:14.406Z,90
2017-08-14T06:18:54.880Z,90
2017-08-14T06:19:35.421Z,90
2017-08-14T06:20:15.935Z,90
2017-08-14T06:20:56.472Z,90
2017-08-14T06:21:37.115Z,90
2017-08-14T06:22:17.759Z,90
2017-08-14T06:22:58.262Z,90
2017-08-14T06:23:38.729Z,90
2017-08-14T06:24:19.221Z,90
2017-08-14T06:24:59.732Z,95
2017-08-14T06:25:40.249Z,95
2017-08-14T06:26:20.757Z,95
2017-08-14T06:27:01.270Z,95
2017-08-14T06:27:41.816Z,95
2017-08-14T06:28:22.304Z,95
2017-08-14T06:29:02.834Z,95
2017-08-14T06:29:43.353Z,95
2017-08-14T06:30:23.892Z,95
2017-08-14T06:31:04.395Z,100
2017-08-14T06:31:44.904Z,100
2017-08-14T06:32:25.429Z,100
2017-08-14T06:33:05.943Z,100
2017-08-14T06:33:46.474Z,100
2017-08-14T06:34:27.035Z,100
2017-08-14T06:35:07.562Z,100
2017-08-14T06:35:48.078Z,105
2017-08-14T06:36:28.583Z,105
2017-08-14T06:37:09.109Z,105
2017-08-14T06:37:49.650Z,105
2017-08-14T06:38:30.188Z,105
2017-08-14T06:39:10.703Z,105
2017-08-14T06:39:51.237Z,105
2017-08-14T06:40:31.767Z,105
2017-08-14T06:41:12.303Z,105
2017-08-14T06:41:52.846Z,110
2017-08-14T06:42:33.365Z,110
2017-08-14T06:43:13.894Z,110
2017-08-14T06:43:54.432Z,110
2017-08-14T06:44:34.972Z,110
2017-08-14T06:45:15.479Z,110
2017-08-14T06:45:55.985Z,115
2017-08-14T06:46:36.518Z,115
2017-08-14T06:47:17.046Z,115
2017-08-14T06:47:57.591Z,115
2017-08-14T06:48:38.113Z,115
2017-08-14T06:49:18.640Z,115
2017-08-14T06:49:59.172Z,120
2017-08-14T06:50:39.716Z,120
2017-08-14T06:51:20.226Z,120
2017-08-14T06:52:00.770Z,120
2017-08-14T06:52:41.299Z,120
2017-08-14T06:53:21.817Z,120
2017-08-14T06:54:02.330Z,120
2017-08-14T06:54:42.844Z,120
2017-08-14T06:55:23.359Z,125
2017-08-14T06:56:03.901Z,125
2017-08-14T06:56:44.406Z,125
2017-08-14T06:57:24.945Z,125
2017-08-14T06:58:05.477Z,125
2017-08-14T06:58:46.027Z,130
2017-08-14T06:59:26.561Z,130
2017-08-14T07:00:07.085Z,130
2017-08-14T07:00:47.601Z,130
2017-08-14T07:01:28.143Z,135
2017-08-14T07:02:08.677Z,135
2017-08-14T07:02:49.217Z,135
2017-08-14T07:03:29.744Z,135
2017-08-14T07:04:10.274Z,140
2017-08-14T07:04:50.811Z,140
2017-08-14T07:05:31.342Z,140
2017-08-14T07:06:11.875Z,140
2017-08-14T07:06:52.448Z,145
2017-08-14T07:07:32.956Z,145
2017-08-14T07:08:13.486Z,145
2017-08-14T07:08:54.038Z,145
2017-08-14T07:09:34.594Z,145
2017-08-14T07:10:15.111Z,145
2017-08-14T07:10:55.644Z,150
2017-08-14T07:11:36.176Z,150
2017-08-14T07:12:16.731Z,150
2017-08-14T07:12:57.312Z,155
2017-08-14T07:13:37.861Z,155
2017-08-14T07:14:18.382Z,155
2017-08-14T07:14:58.941Z,160
2017-08-14T07:15:39.484Z,170
2017-08-14T07:16:20.006Z,280
2017-08-14T07:17:00.550Z,465
2017-08-14T07:17:41.037Z,690
2017-08-14T07:18:21.576Z,895
2017-08-14T07:19:02.116Z,1065
2017-08-14T07:19:42.647Z,1180
2017-08-14T07:20:23.180Z,1275
2017-08-14T07:21:03.796Z,1325
2017-08-14T07:21:44.332Z,1405
2017-08-14T07:22:24.854Z,1455
2017-08-14T07:23:05.381Z,1460
2017-08-14T07:23:45.946Z,1440
2017-08-14T07:24:26.481Z,1445
2017-08-14T07:25:07.013Z,1450
2017-08-14T07:25:47.562Z,1450
2017-08-14T07:26:28.091Z,1485
2017-08-14T07:27:08.619Z,1505
2017-08-14T07:27:49.153Z,1505
2017-08-14T07:28:29.695Z,1500
2017-08-14T07:29:10.211Z,1530
2017-08-14T07:29:50.746Z,1565
2017-08-14T07:30:31.290Z,1590
2017-08-14T07:31:11.840Z,1585
2017-08-14T07:31:52.411Z,1555
2017-08-14T07:32:32.976Z,1560
2017-08-14T07:33:13.501Z,1610
2017-08-14T07:33:54.048Z,1620
2017-08-14T07:34:34.593Z,1610
2017-08-14T07:35:15.103Z,1625
2017-08-14T07:35:55.629Z,1645
2017-08-14T07:36:36.182Z,1650
2017-08-14T07:37:16.675Z,1660
2017-08-14T07:37:57.201Z,1650
2017-08-14T07:38:37.722Z,1660
2017-08-14T07:39:18.262Z,1680
2017-08-14T07:39:58.848Z,1700
2017-08-14T07:40:39.397Z,1735
2017-08-14T07:41:19.940Z,1740
2017-08-14T07:42:00.532Z,1715
2017-08-14T07:42:41.060Z,1705
2017-08-14T07:43:21.617Z,1720
2017-08-14T07:44:02.119Z,1730
2017-08-14T07:44:42.647Z,1745
2017-08-14T07:45:23.155Z,1740
2017-08-14T07:46:03.722Z,1750
2017-08-14T07:46:44.242Z,1770
2017-08-14T07:47:24.776Z,1780
2017-08-14T07:48:05.289Z,1780
2017-08-14T07:48:45.801Z,1760
2017-08-14T07:49:26.391Z,1755
2017-08-14T07:50:06.946Z,1765
2017-08-14T07:50:47.511Z,1810
2017-08-14T07:51:28.091Z,1810
2017-08-14T07:52:08.618Z,1790
2017-08-14T07:52:49.164Z,1815
2017-08-14T07:53:29.696Z,1855
2017-08-14T07:54:10.251Z,1870
2017-08-14T07:54:50.795Z,1800
2017-08-14T07:55:31.359Z,1745
2017-08-14T07:56:11.895Z,1730
2017-08-14T07:56:52.542Z,1760
2017-08-14T07:57:33.081Z,1790
2017-08-14T07:58:13.621Z,1795
2017-08-14T07:58:54.167Z,1795
2017-08-14T07:59:34.706Z,1795
2017-08-14T08:00:15.261Z,1800
2017-08-14T08:00:55.863Z,1835
2017-08-14T08:01:36.416Z,315
2017-08-14T08:02:16.931Z,525
2017-08-14T08:02:57.475Z,970
2017-08-14T08:03:37.996Z,395
2017-08-14T08:04:18.518Z,2005
2017-08-14T08:04:59.019Z,2030
2017-08-14T08:05:39.591Z,2015
2017-08-14T08:06:20.115Z,2065
2017-08-14T08:07:00.636Z,1290
2017-08-14T08:07:41.161Z,1935
2017-08-14T08:08:21.724Z,1280
2017-08-14T08:09:02.194Z,395
2017-08-14T08:09:42.764Z,1805
2017-08-14T08:10:23.256Z,1600
2017-08-14T08:11:03.762Z,585
2017-08-14T08:11:44.301Z,1950
2017-08-14T08:12:24.817Z,2125
2017-08-14T08:13:05.424Z,2170
2017-08-14T08:13:46.154Z,1905
2017-08-14T08:14:26.819Z,2195
2017-08-14T08:15:08.154Z,620
2017-08-14T08:15:48.717Z,315
2017-08-14T08:16:29.314Z,2410
2017-08-14T08:17:09.832Z,2350
2017-08-14T08:17:50.407Z,2360
2017-08-14T08:18:31.093Z,445
2017-08-14T08:19:11.737Z,2430
2017-08-14T08:19:52.421Z,875
2017-08-14T08:20:33.050Z,1915
2017-08-14T08:21:13.596Z,2160
2017-08-14T08:21:54.087Z,395
2017-08-14T08:22:34.630Z,780
2017-08-14T08:23:15.186Z,2415
2017-08-14T08:23:55.883Z,2290
2017-08-14T08:24:36.568Z,2275
2017-08-14T08:25:17.227Z,2245
2017-08-14T08:25:57.904Z,2270
2017-08-14T08:26:38.490Z,2210
2017-08-14T08:27:18.996Z,2410
2017-08-14T08:27:59.522Z,2385
2017-08-14T08:28:40.049Z,2205
2017-08-14T08:29:20.664Z,1975
2017-08-14T08:30:01.397Z,1610
2017-08-14T08:30:42.043Z,1370
2017-08-14T08:31:22.696Z,1070
2017-08-14T08:32:03.247Z,750
2017-08-14T08:32:43.808Z,580
2017-08-14T08:33:24.661Z,495
2017-08-14T08:34:05.977Z,460
2017-08-14T08:34:47.156Z,360
2017-08-14T08:35:28.088Z,335
2017-08-14T08:36:08.947Z,325
2017-08-14T08:36:51.574Z,315
2017-08-14T08:37:32.935Z,310
2017-08-14T08:38:15.157Z,305
2017-08-14T08:38:58.017Z,305
2017-08-14T08:39:42.020Z,300
2017-08-14T08:40:25.582Z,295
2017-08-14T08:41:08.354Z,300
2017-08-14T08:41:52.348Z,295
2017-08-14T08:42:35.994Z,295
2017-08-14T08:43:18.889Z,295
2017-08-14T08:44:01.632Z,300
2017-08-14T08:44:45.276Z,310
2017-08-14T08:45:26.949Z,320
2017-08-14T08:46:08.582Z,355
2017-08-14T08:46:52.296Z,390
2017-08-14T08:47:35.577Z,425
2017-08-14T08:48:18.585Z,465
2017-08-14T08:49:02.085Z,455
2017-08-14T08:49:45.541Z,490
2017-08-14T08:50:26.571Z,500
2017-08-14T08:51:08.212Z,540
2017-08-14T08:51:48.793Z,480
2017-08-14T08:52:29.795Z,430
2017-08-14T08:53:10.919Z,465
2017-08-14T08:53:52.096Z,455
2017-08-14T08:54:33.601Z,450
2017-08-14T08:55:14.676Z,435
2017-08-14T08:55:55.613Z,405
2017-08-14T08:56:36.635Z,395
2017-08-14T08:57:17.744Z,390
2017-08-14T08:57:58.689Z,405
2017-08-14T08:58:40.090Z,420
2017-08-14T08:59:21.035Z,410
2017-08-14T09:00:01.807Z,450
2017-08-14T09:00:42.705Z,390
2017-08-14T09:01:23.409Z,415
2017-08-14T09:02:04.057Z,345
2017-08-14T09:02:44.734Z,365
2017-08-14T09:03:25.430Z,345
2017-08-14T09:04:06.195Z,345
2017-08-14T09:04:47.025Z,340
2017-08-14T09:05:27.808Z,340
2017-08-14T09:06:08.448Z,360
2017-08-14T09:06:49.784Z,360
2017-08-14T09:07:30.755Z,370
2017-08-14T09:08:11.653Z,395
2017-08-14T09:08:52.653Z,420
2017-08-14T09:09:33.452Z,450
2017-08-14T09:10:14.378Z,505
2017-08-14T09:10:55.298Z,565
2017-08-14T09:11:36.312Z,560
2017-08-14T09:12:17.146Z,610
2017-08-14T09:12:58.217Z,770
2017-08-14T09:13:38.937Z,740
2017-08-14T09:14:19.859Z,1885
2017-08-14T09:15:01.047Z,1310
2017-08-14T09:15:41.911Z,1975
2017-08-14T09:16:22.862Z,900
2017-08-14T09:17:03.917Z,795
2017-08-14T09:17:44.996Z,750
2017-08-14T09:18:25.986Z,660
2017-08-14T09:19:06.863Z,625
2017-08-14T09:19:47.727Z,655
2017-08-14T09:20:28.458Z,640
2017-08-14T09:21:09.349Z,730
2017-08-14T09:21:50.072Z,655
2017-08-14T09:22:31.132Z,690
2017-08-14T09:23:11.988Z,635
2017-08-14T09:23:52.880Z,535
2017-08-14T09:24:33.407Z,530
2017-08-14T09:25:14.123Z,520
2017-08-14T09:25:54.705Z,900
2017-08-14T09:26:35.241Z,640
2017-08-14T09:27:15.806Z,530
2017-08-14T09:27:56.352Z,2360
2017-08-14T09:28:36.894Z,3190
2017-08-14T09:29:17.434Z,2920
2017-08-14T09:29:57.971Z,3530
2017-08-14T09:30:38.515Z,2525
2017-08-14T09:31:19.067Z,3595
2017-08-14T09:31:59.605Z,720
2017-08-14T09:32:40.148Z,1600
2017-08-14T09:33:20.668Z,2210
2017-08-14T09:34:01.223Z,1195
2017-08-14T09:34:41.764Z,1060
2017-08-14T09:35:22.255Z,1960
2017-08-14T09:36:02.803Z,3610
2017-08-14T09:36:43.314Z,1835
2017-08-14T09:37:23.846Z,1335
2017-08-14T09:38:04.380Z,890
2017-08-14T09:38:44.923Z,2680
2017-08-14T09:39:25.485Z,3140